Time;durP1;ratioP1;P1;durP2;ratioP2;P2;SDS_P1;SDS_P2;PMS_P1;PMS_P2;Temp;Humidity;BMP_temperature;BMP_pressure;BME280_temperature;BME280_humidity;BME280_pressure;Samples;Min_cycle;Max_cycle;Signal;HPM_P1;HPM_P2
2021/12/05 00:19:43;;;;;;;17.52;10.55;;;14.90;78.80;;;;;;4208419;28;20135;-60
2021/12/05 00:22:13;;;;;;;15.90;9.60;;;14.90;78.70;;;;;;4213603;28;20048;-60
2021/12/05 00:24:38;;;;;;;17.50;9.23;;;14.90;78.60;;;;;;4221963;28;20051;-60
2021/12/05 00:27:13;;;;;;;19.55;11.20;;;14.90;78.70;;;;;;4208300;28;20113;-60
2021/12/05 00:29:40;;;;;;;16.17;10.45;;;14.90;78.50;;;;;;4206797;28;20089;-60
2021/12/05 00:32:14;;;;;;;16.17;9.43;;;14.90;78.80;;;;;;4207045;28;20111;-61
2021/12/05 00:48:34;;;;;;;14.32;8.27;;;14.80;79.50;;;;;;4222797;28;20130;-60
2021/12/05 00:57:06;;;;;;;14.40;8.45;;;14.80;79.80;;;;;;4172261;28;20391;-60
2021/12/05 00:59:44;;;;;;;15.07;8.20;;;14.80;79.90;;;;;;4173627;28;20140;-60
2021/12/05 01:02:18;;;;;;;17.65;8.40;;;14.70;79.70;;;;;;4193540;28;20070;-60
2021/12/05 01:05:02;;;;;;;14.00;7.57;;;14.70;80.40;;;;;;4209771;28;20501;-59
2021/12/05 01:10:14;;;;;;;14.18;8.43;;;14.90;80.50;;;;;;4212619;28;20048;-60
2021/12/05 01:15:36;;;;;;;13.02;7.75;;;15.10;79.90;;;;;;4226582;28;20116;-60
2021/12/05 01:18:04;;;;;;;17.02;7.75;;;15.10;79.50;;;;;;4217958;28;20052;-60
2021/12/05 01:20:33;;;;;;;13.10;7.22;;;15.20;79.10;;;;;;4210234;28;20035;-60
2021/12/05 01:23:00;;;;;;;12.57;7.40;;;15.20;79.00;;;;;;4212831;28;20039;-60
2021/12/05 01:25:35;;;;;;;13.55;6.57;;;15.20;78.90;;;;;;4223223;28;20563;-60
2021/12/05 01:28:03;;;;;;;13.65;7.10;;;15.20;78.90;;;;;;4209832;28;20048;-60
2021/12/05 01:30:36;;;;;;;13.65;6.63;;;15.20;78.80;;;;;;4209384;28;20521;-60
2021/12/05 01:33:06;;;;;;;12.75;6.30;;;15.20;78.50;;;;;;4216730;27;20410;-65
2021/12/05 01:35:43;;;;;;;9.02;6.18;;;15.20;78.40;;;;;;4227123;28;20051;-65
2021/12/05 01:38:11;;;;;;;10.98;6.10;;;15.20;78.40;;;;;;4215520;28;20465;-65
2021/12/05 01:41:00;;;;;;;11.20;6.50;;;15.20;78.20;;;;;;4211092;28;20406;-65
2021/12/05 01:49:40;;;;;;;10.88;7.03;;;15.10;78.10;;;;;;4142980;28;20049;-65
2021/12/05 01:55:19;;;;;;;12.15;5.43;;;15.00;79.20;;;;;;4192756;28;20052;-65
2021/12/05 01:58:08;;;;;;;8.30;5.20;;;15.10;79.50;;;;;;4193039;28;20072;-65
2021/12/05 02:29:25;;;;;;;8.57;4.82;;;15.40;78.10;;;;;;4197532;27;20048;-65
2021/12/05 02:30:45;;;;;;;6.72;4.63;;;15.30;78.60;;;;;;4193238;28;20406;-65
2021/12/05 02:33:17;;;;;;;7.22;4.50;;;15.40;78.30;;;;;;4200708;28;20067;-65
2021/12/05 02:36:09;;;;;;;7.57;4.20;;;15.50;78.00;;;;;;4209807;28;20040;-65
2021/12/05 02:41:28;;;;;;;11.40;4.53;;;15.60;77.60;;;;;;4206669;28;20047;-65
2021/12/05 02:43:58;;;;;;;9.52;4.38;;;15.60;78.40;;;;;;4222971;28;20428;-65
2021/12/05 02:46:22;;;;;;;7.43;4.50;;;15.50;77.20;;;;;;4210661;27;20075;-64
2021/12/05 02:48:45;;;;;;;7.18;4.03;;;15.50;77.20;;;;;;4225849;27;20047;-65
2021/12/05 02:51:12;;;;;;;10.05;4.80;;;15.50;77.30;;;;;;4225545;27;20581;-65
2021/12/05 02:53:40;;;;;;;6.82;4.50;;;15.50;77.10;;;;;;4211415;28;20126;-64
2021/12/05 02:56:04;;;;;;;7.38;4.20;;;15.50;77.10;;;;;;4207430;28;21423;-64
2021/12/05 02:58:32;;;;;;;8.27;4.63;;;15.50;77.20;;;;;;4208839;28;20085;-65
2021/12/05 03:01:08;;;;;;;8.25;4.57;;;15.50;77.10;;;;;;4211161;28;20044;-64
2021/12/05 03:03:32;;;;;;;7.55;4.10;;;15.50;77.20;;;;;;4210218;28;20044;-65
2021/12/05 03:06:01;;;;;;;6.05;4.25;;;15.50;77.40;;;;;;4208332;28;20048;-63
2021/12/05 03:08:23;;;;;;;5.85;4.28;;;15.40;77.40;;;;;;4210065;28;20087;-65
2021/12/05 03:10:50;;;;;;;5.78;3.67;;;15.40;77.50;;;;;;4213261;28;20506;-65
2021/12/05 03:13:12;;;;;;;7.40;3.83;;;15.40;77.40;;;;;;4225842;28;20134;-65
2021/12/05 03:15:34;;;;;;;11.05;4.05;;;15.50;77.50;;;;;;4225263;27;20419;-65
2021/12/05 03:17:56;;;;;;;5.50;3.67;;;15.40;77.50;;;;;;4225176;27;20563;-65
2021/12/05 03:20:21;;;;;;;7.70;3.88;;;15.50;78.40;;;;;;4223825;28;20509;-66
2021/12/05 03:22:44;;;;;;;6.43;3.47;;;15.60;77.10;;;;;;4207869;28;20064;-65
2021/12/05 03:25:09;;;;;;;5.97;3.65;;;15.60;77.80;;;;;;4208611;28;20093;-65
2021/12/05 03:27:32;;;;;;;9.00;3.85;;;15.70;76.30;;;;;;4215789;27;20047;-66
2021/12/05 03:29:54;;;;;;;9.70;4.60;;;15.70;76.20;;;;;;4209768;28;20445;-66
2021/12/05 03:32:17;;;;;;;6.93;3.65;;;15.80;76.30;;;;;;4208199;28;20169;-66
2021/12/05 03:34:40;;;;;;;6.47;3.38;;;15.70;76.10;;;;;;4208386;28;20051;-66
2021/12/05 03:37:04;;;;;;;5.10;3.40;;;15.80;76.00;;;;;;4207686;28;20048;-66
2021/12/05 03:39:29;;;;;;;6.95;3.95;;;15.70;75.90;;;;;;4225086;28;20396;-66
2021/12/05 03:41:53;;;;;;;7.63;4.10;;;15.70;75.90;;;;;;4224890;28;20040;-66
2021/12/05 03:44:20;;;;;;;9.10;3.50;;;15.70;75.90;;;;;;4213970;28;20526;-65
2021/12/05 03:46:43;;;;;;;6.25;4.00;;;15.70;75.80;;;;;;4209609;28;22836;-65
2021/12/05 03:49:08;;;;;;;6.53;3.75;;;15.70;76.10;;;;;;4221455;28;20141;-65
2021/12/05 03:51:33;;;;;;;9.55;4.45;;;15.70;76.10;;;;;;4224660;28;20463;-65
2021/12/05 03:53:56;;;;;;;5.32;3.80;;;15.60;75.90;;;;;;4224247;28;20077;-65
2021/12/05 03:56:19;;;;;;;5.07;3.53;;;15.60;75.90;;;;;;4220272;28;20052;-66
2021/12/05 03:58:42;;;;;;;6.78;3.88;;;15.60;76.30;;;;;;4206859;28;20051;-65
2021/12/05 04:01:09;;;;;;;9.63;4.55;;;15.60;76.20;;;;;;4207196;28;20522;-66
2021/12/05 04:03:34;;;;;;;6.28;3.97;;;15.60;75.80;;;;;;4206593;28;20465;-66
2021/12/05 04:05:56;;;;;;;7.68;4.00;;;15.60;76.00;;;;;;4208141;28;20599;-66
2021/12/05 04:08:20;;;;;;;8.93;4.22;;;15.50;76.20;;;;;;4225330;28;20141;-65
2021/12/05 04:10:46;;;;;;;7.70;4.43;;;15.60;76.10;;;;;;4224414;28;20048;-66
2021/12/05 04:13:08;;;;;;;11.40;5.03;;;15.50;76.40;;;;;;4224561;28;20055;-65
2021/12/05 04:15:30;;;;;;;9.98;4.40;;;15.60;76.60;;;;;;4224760;27;20061;-67
2021/12/05 04:17:54;;;;;;;5.78;4.60;;;15.60;76.20;;;;;;4207897;28;20497;-67
2021/12/05 04:20:17;;;;;;;15.10;5.63;;;15.70;76.10;;;;;;4207722;28;20480;-65
2021/12/05 04:22:40;;;;;;;11.10;4.78;;;15.70;76.10;;;;;;4207636;28;20048;-65
2021/12/05 04:25:09;;;;;;;11.02;5.38;;;15.70;75.90;;;;;;4207916;28;20055;-65
2021/12/05 04:27:31;;;;;;;10.60;4.93;;;15.70;75.80;;;;;;4220757;28;20430;-66
2021/12/05 04:29:54;;;;;;;11.77;5.93;;;15.70;75.60;;;;;;4224292;28;20179;-66
2021/12/05 04:32:16;;;;;;;9.32;5.60;;;15.70;75.40;;;;;;4222880;28;20059;-65
2021/12/05 04:34:39;;;;;;;14.90;5.82;;;15.70;75.20;;;;;;4224200;28;20127;-65
2021/12/05 04:37:02;;;;;;;11.50;5.25;;;15.70;75.60;;;;;;4214118;28;20046;-65
2021/12/05 04:39:29;;;;;;;9.38;4.97;;;15.60;75.40;;;;;;4206958;28;20052;-65
2021/12/05 04:41:51;;;;;;;15.40;6.45;;;15.60;75.70;;;;;;4207269;28;20048;-66
2021/12/05 04:44:15;;;;;;;14.05;5.97;;;15.60;75.70;;;;;;4207375;28;20068;-65
2021/12/05 04:46:40;;;;;;;12.68;6.00;;;15.60;76.70;;;;;;4215264;28;20046;-65
2021/12/05 04:49:03;;;;;;;13.02;6.32;;;15.50;76.00;;;;;;4223634;28;20554;-65
2021/12/05 04:51:31;;;;;;;12.60;6.07;;;15.50;76.30;;;;;;4224210;28;20066;-66
2021/12/05 04:53:54;;;;;;;15.15;6.97;;;15.50;76.20;;;;;;4224151;28;20063;-65
2021/12/05 04:56:18;;;;;;;13.18;6.68;;;15.40;76.30;;;;;;4217882;28;20128;-66
2021/12/05 04:58:40;;;;;;;13.60;6.18;;;15.40;76.50;;;;;;4208459;28;20048;-66
2021/12/05 05:01:03;;;;;;;9.05;6.13;;;15.40;77.50;;;;;;4207496;28;20044;-67
2021/12/05 05:03:26;;;;;;;10.18;6.28;;;15.40;77.10;;;;;;4208454;28;20578;-65
2021/12/05 05:05:51;;;;;;;11.10;6.68;;;15.40;77.50;;;;;;4211590;28;20071;-66
2021/12/05 05:08:15;;;;;;;17.58;7.30;;;15.50;77.20;;;;;;4225463;28;20059;-66
2021/12/05 05:10:38;;;;;;;14.05;6.35;;;15.60;76.70;;;;;;4225331;28;20072;-66
2021/12/05 05:13:00;;;;;;;16.73;7.10;;;15.70;76.20;;;;;;4224890;28;20410;-66
2021/12/05 05:15:26;;;;;;;13.43;6.53;;;15.70;75.90;;;;;;4211967;28;20079;-66
2021/12/05 05:17:50;;;;;;;11.82;6.55;;;15.80;75.40;;;;;;4208229;28;20483;-66
2021/12/05 05:20:21;;;;;;;12.50;5.97;;;15.80;75.20;;;;;;4208274;28;20044;-66
2021/12/05 05:22:45;;;;;;;14.07;7.03;;;15.80;75.00;;;;;;4217205;28;20062;-65
2021/12/05 05:25:51;;;;;;;11.00;5.70;;;15.80;75.10;;;;;;4214277;28;20051;-66
2021/12/05 05:28:27;;;;;;;9.82;6.20;;;15.80;75.20;;;;;;4208408;28;20134;-67
2021/12/05 05:46:55;;;;;;;12.15;6.05;;;16.00;74.30;;;;;;4194544;28;20051;-66
2021/12/05 05:49:21;;;;;;;16.45;6.97;;;16.00;74.30;;;;;;4193394;28;20052;-66
2021/12/05 05:51:43;;;;;;;11.55;5.82;;;16.00;74.10;;;;;;4211248;28;20052;-66
2021/12/05 05:54:05;;;;;;;13.60;5.60;;;15.90;74.30;;;;;;4215156;27;20039;-66
2021/12/05 05:56:30;;;;;;;10.70;6.07;;;15.90;74.60;;;;;;4227511;28;20059;-66
2021/12/05 05:58:57;;;;;;;12.32;7.05;;;16.00;74.90;;;;;;4227708;27;20055;-66
2021/12/05 06:01:32;;;;;;;13.80;6.35;;;16.00;74.40;;;;;;4228584;27;20451;-66
2021/12/05 06:03:54;;;;;;;14.65;6.20;;;16.10;74.00;;;;;;4222818;28;20403;-66
2021/12/05 06:06:17;;;;;;;12.85;6.00;;;16.20;73.80;;;;;;4210528;28;20455;-66
2021/12/05 06:08:41;;;;;;;10.65;4.97;;;16.20;73.40;;;;;;4211346;28;20040;-66
2021/12/05 06:11:06;;;;;;;13.40;5.68;;;16.20;73.20;;;;;;4209481;28;20093;-66
2021/12/05 06:13:30;;;;;;;17.30;6.47;;;16.10;73.30;;;;;;4226759;27;20124;-66
2021/12/05 06:15:52;;;;;;;12.93;5.00;;;16.10;73.50;;;;;;4227633;27;20046;-66
2021/12/05 06:18:14;;;;;;;12.77;6.05;;;16.10;73.90;;;;;;4225457;28;20059;-66
2021/12/05 06:20:36;;;;;;;10.63;5.30;;;16.10;73.90;;;;;;4227090;27;20039;-66
2021/12/05 06:22:59;;;;;;;18.50;5.55;;;16.10;73.90;;;;;;4215963;28;20040;-66
2021/12/05 06:25:24;;;;;;;11.55;5.00;;;16.10;73.60;;;;;;4210747;28;20066;-66
2021/12/05 06:27:46;;;;;;;10.40;4.95;;;16.10;73.40;;;;;;4210925;28;20054;-66
2021/12/05 06:30:16;;;;;;;11.10;5.38;;;16.10;73.40;;;;;;4210699;28;20051;-67
2021/12/05 06:36:51;;;;;;;11.82;4.47;;;16.00;73.40;;;;;;4210455;28;20138;-66
2021/12/05 06:38:30;;;;;;;6.20;4.97;;;16.00;74.20;;;;;;4210474;28;20109;-66
2021/12/05 06:41:04;;;;;;;8.82;4.53;;;16.00;74.30;;;;;;4209876;28;20040;-65
2021/12/05 06:46:12;;;;;;;11.07;4.72;;;16.10;73.60;;;;;;4210135;28;20113;-67
2021/12/05 06:48:34;;;;;;;11.88;4.38;;;16.10;73.30;;;;;;4210590;28;20065;-65
2021/12/05 06:50:56;;;;;;;12.60;4.65;;;16.10;73.30;;;;;;4210526;28;20495;-67
2021/12/05 06:53:18;;;;;;;8.25;4.50;;;16.10;73.60;;;;;;4209620;28;20048;-67
2021/12/05 06:55:41;;;;;;;17.05;4.90;;;16.10;74.00;;;;;;4209498;28;20411;-66
2021/12/05 06:58:05;;;;;;;8.15;4.18;;;16.10;74.10;;;;;;4210305;28;20052;-66
2021/12/05 07:00:30;;;;;;;13.20;4.20;;;16.10;73.60;;;;;;4210494;28;20073;-66
2021/12/05 07:02:53;;;;;;;10.48;4.63;;;16.10;73.20;;;;;;4209749;28;20044;-66
2021/12/05 07:07:54;;;;;;;7.25;3.75;;;16.10;73.30;;;;;;4189067;28;20408;-65
2021/12/05 07:10:18;;;;;;;8.68;4.25;;;16.00;73.40;;;;;;4193312;28;20048;-66
2021/12/05 07:15:38;;;;;;;12.90;4.47;;;16.00;74.60;;;;;;4193455;28;20048;-66
2021/12/05 07:20:52;;;;;;;10.77;4.35;;;16.00;73.40;;;;;;4192915;28;20044;-66
2021/12/05 07:23:27;;;;;;;9.88;5.00;;;16.00;73.30;;;;;;4208673;27;20059;-66
2021/12/05 07:25:54;;;;;;;10.90;4.35;;;16.00;73.20;;;;;;4221800;27;20050;-66
2021/12/05 07:41:48;;;;;;;12.00;4.65;;;16.20;72.80;;;;;;4208273;28;20051;-66
2021/12/05 07:44:11;;;;;;;12.95;4.40;;;16.20;72.70;;;;;;4206017;28;20040;-68
2021/12/05 07:46:33;;;;;;;11.45;5.50;;;16.20;72.60;;;;;;4193046;28;20044;-66
2021/12/05 07:48:56;;;;;;;10.57;5.50;;;16.10;72.40;;;;;;4206623;28;20048;-67
2021/12/05 07:51:26;;;;;;;8.98;4.45;;;16.10;72.20;;;;;;4222992;27;20119;-67
2021/12/05 07:53:54;;;;;;;8.65;4.22;;;16.00;72.50;;;;;;4209149;28;20093;-66
2021/12/05 07:56:22;;;;;;;11.27;5.10;;;16.00;73.00;;;;;;4209488;28;20054;-67
2021/12/05 07:58:59;;;;;;;13.48;4.88;;;16.10;73.20;;;;;;4220612;28;20060;-67
2021/12/05 08:14:22;;;;;;;10.05;4.78;;;16.00;73.10;;;;;;4210521;28;20044;-66
2021/12/05 08:14:56;;;;;;;9.40;5.05;;;16.10;72.70;;;;;;4224887;27;20047;-67
2021/12/05 08:17:20;;;;;;;9.40;5.40;;;16.10;72.70;;;;;;4209177;28;20064;-67
2021/12/05 08:19:44;;;;;;;12.63;6.15;;;16.10;73.00;;;;;;4203503;27;20048;-66
2021/12/05 08:22:06;;;;;;;10.73;5.72;;;16.10;73.10;;;;;;4200244;27;20048;-67
2021/12/05 08:24:32;;;;;;;8.75;5.28;;;16.10;72.80;;;;;;4196180;27;20102;-66
2021/12/05 08:26:54;;;;;;;10.32;5.70;;;16.20;72.40;;;;;;4208578;27;20047;-66
2021/12/05 08:29:22;;;;;;;8.70;5.45;;;16.20;72.30;;;;;;4206513;27;20651;-67
2021/12/05 08:32:04;;;;;;;10.57;5.68;;;16.20;72.30;;;;;;4200518;27;20102;-67
2021/12/05 08:37:28;;;;;;;11.85;5.88;;;16.30;72.90;;;;;;4209107;27;20491;-66
2021/12/05 08:45:46;;;;;;;11.10;6.55;;;16.30;73.10;;;;;;4167832;28;20092;-64
2021/12/05 09:23:31;;;;;;;12.00;6.60;;;16.20;72.90;;;;;;4194924;28;20141;-64
2021/12/05 09:29:10;;;;;;;9.65;5.40;;;16.10;73.60;;;;;;4227535;27;20055;-65
2021/12/05 10:06:51;;;;;;;10.52;5.45;;;21.00;56.60;;;;;;4211064;28;20083;-61
2021/12/05 10:09:31;;;;;;;11.00;5.88;;;20.80;57.10;;;;;;4210696;28;20060;-61
2021/12/05 10:12:07;;;;;;;7.32;5.47;;;20.50;57.60;;;;;;4210897;28;20117;-61
2021/12/05 10:14:46;;;;;;;11.05;6.25;;;20.30;58.40;;;;;;4210820;28;20085;-61
2021/12/05 10:17:42;;;;;;;12.35;6.00;;;20.10;59.00;;;;;;4220170;28;20075;-61
2021/12/05 10:20:22;;;;;;;11.23;6.45;;;20.00;59.20;;;;;;4227007;28;20043;-61
2021/12/05 10:36:11;;;;;;;8.10;5.90;;;20.10;59.30;;;;;;4227093;27;20055;-62
2021/12/05 10:38:40;;;;;;;11.05;6.05;;;20.10;60.00;;;;;;4227096;28;20040;-61
2021/12/05 10:41:17;;;;;;;10.60;6.32;;;20.10;59.20;;;;;;4226713;28;20055;-61
2021/12/05 10:43:39;;;;;;;8.45;6.47;;;20.20;59.10;;;;;;4226761;27;20047;-65
2021/12/05 10:46:08;;;;;;;10.20;6.13;;;20.30;59.00;;;;;;4210727;28;20047;-65
2021/12/05 10:48:32;;;;;;;9.88;6.00;;;20.30;58.90;;;;;;4209744;28;20052;-61
2021/12/05 10:50:57;;;;;;;11.70;6.78;;;20.30;58.80;;;;;;4209908;28;20074;-63
2021/12/05 10:53:22;;;;;;;9.13;6.03;;;20.30;58.80;;;;;;4210444;28;20040;-61
2021/12/05 10:55:44;;;;;;;9.38;6.30;;;20.30;58.80;;;;;;4210230;28;20064;-61
2021/12/05 10:58:07;;;;;;;6.78;4.97;;;20.30;58.80;;;;;;4210215;28;20044;-61
2021/12/05 11:00:29;;;;;;;9.05;5.75;;;20.30;58.70;;;;;;4213447;28;20040;-61
2021/12/05 11:02:52;;;;;;;10.32;5.72;;;20.30;58.60;;;;;;4227090;27;20502;-60
2021/12/05 11:05:33;;;;;;;12.43;6.47;;;20.30;58.70;;;;;;4226932;27;20058;-61
2021/12/05 11:07:55;;;;;;;12.52;6.35;;;20.30;58.70;;;;;;4226787;27;20447;-61
2021/12/05 11:10:17;;;;;;;10.15;5.63;;;20.30;58.90;;;;;;4226469;27;20079;-61
2021/12/05 11:12:40;;;;;;;8.85;5.47;;;20.30;58.80;;;;;;4222883;27;20131;-61
2021/12/05 11:15:06;;;;;;;9.90;6.00;;;20.30;58.70;;;;;;4210101;28;20060;-62
2021/12/05 11:17:30;;;;;;;10.50;6.07;;;20.40;58.70;;;;;;4209899;28;20511;-61
2021/12/05 11:19:57;;;;;;;10.38;5.95;;;20.40;58.80;;;;;;4210315;28;20068;-61
2021/12/05 11:22:22;;;;;;;13.38;5.55;;;20.40;58.80;;;;;;4226778;28;20055;-61
2021/12/05 11:24:48;;;;;;;11.00;5.85;;;20.40;58.80;;;;;;4215628;28;20051;-62
2021/12/05 11:27:20;;;;;;;9.02;5.63;;;20.30;58.80;;;;;;4219651;28;20474;-61
2021/12/05 11:30:03;;;;;;;12.20;6.10;;;20.40;58.70;;;;;;4220337;27;20477;-62
2021/12/05 11:32:33;;;;;;;8.40;5.75;;;20.30;58.90;;;;;;4226535;27;20490;-61
2021/12/05 11:34:57;;;;;;;11.50;6.03;;;20.30;59.20;;;;;;4211475;28;20048;-61
2021/12/05 11:37:19;;;;;;;6.82;5.70;;;20.30;59.20;;;;;;4209869;28;20048;-61
2021/12/05 11:39:41;;;;;;;9.77;5.88;;;20.30;59.10;;;;;;4210214;28;20047;-61
2021/12/05 11:42:12;;;;;;;11.05;5.65;;;20.30;59.00;;;;;;4220944;27;20043;-61
2021/12/05 11:44:34;;;;;;;12.45;7.15;;;20.30;59.60;;;;;;4226494;27;20525;-61
2021/12/05 11:46:57;;;;;;;19.15;8.32;;;20.30;59.00;;;;;;4211745;28;20118;-61
2021/12/05 11:49:22;;;;;;;19.55;9.88;;;20.30;59.10;;;;;;4211698;28;20139;-61
2021/12/05 11:51:51;;;;;;;22.48;11.40;;;20.30;59.10;;;;;;4215299;27;20111;-61
2021/12/05 11:54:16;;;;;;;25.17;14.50;;;20.30;58.90;;;;;;4225462;27;20039;-61
2021/12/05 11:56:45;;;;;;;31.35;12.40;;;20.40;59.00;;;;;;4209639;28;20383;-61
2021/12/05 11:59:11;;;;;;;33.78;15.30;;;20.40;58.90;;;;;;4220755;27;20048;-61
2021/12/05 12:01:36;;;;;;;31.75;15.27;;;20.40;58.80;;;;;;4226343;27;20048;-61
2021/12/05 12:03:58;;;;;;;44.45;19.67;;;20.40;58.80;;;;;;4220486;27;20051;-61
2021/12/05 12:06:20;;;;;;;31.73;13.00;;;20.30;58.90;;;;;;4225892;27;20063;-62
2021/12/05 12:08:44;;;;;;;38.00;16.65;;;20.20;59.10;;;;;;4217105;27;20050;-61
2021/12/05 12:11:06;;;;;;;47.55;21.25;;;20.10;59.50;;;;;;4225984;27;20044;-61
2021/12/05 12:13:34;;;;;;;30.75;15.48;;;20.00;59.80;;;;;;4225743;27;20071;-61
2021/12/05 12:16:00;;;;;;;28.40;15.02;;;20.00;59.80;;;;;;4222817;27;20047;-61
2021/12/05 12:18:26;;;;;;;28.17;14.07;;;20.00;60.80;;;;;;4192482;28;20118;-61
2021/12/05 12:20:48;;;;;;;62.78;25.95;;;20.00;60.00;;;;;;4192362;28;20484;-61
2021/12/05 12:23:11;;;;;;;29.77;15.07;;;20.00;60.20;;;;;;4193345;27;20052;-61
2021/12/05 12:25:37;;;;;;;30.35;15.45;;;20.00;60.20;;;;;;4192122;28;20361;-61
2021/12/05 12:28:00;;;;;;;15.35;9.27;;;20.00;60.00;;;;;;4192564;28;20049;-61
2021/12/05 12:30:25;;;;;;;28.20;13.02;;;20.00;60.00;;;;;;4193287;27;20221;-61
2021/12/05 12:32:50;;;;;;;26.85;12.80;;;20.00;60.00;;;;;;4192460;28;20047;-61
2021/12/05 12:35:16;;;;;;;32.38;13.55;;;19.90;60.10;;;;;;4205410;27;20044;-61
2021/12/05 12:37:58;;;;;;;29.15;14.35;;;19.90;60.30;;;;;;4192447;28;20037;-61
2021/12/05 12:40:37;;;;;;;23.83;12.57;;;19.80;60.40;;;;;;4191960;28;20057;-60
2021/12/05 12:43:00;;;;;;;27.73;12.23;;;19.70;60.70;;;;;;4191937;28;20048;-61
2021/12/05 12:45:22;;;;;;;23.65;11.27;;;19.70;61.20;;;;;;4192314;28;20434;-62
2021/12/05 12:47:46;;;;;;;29.92;11.70;;;19.70;62.20;;;;;;4192503;28;20101;-60
2021/12/05 12:50:34;;;;;;;30.40;14.32;;;19.70;61.20;;;;;;4212335;28;20081;-61
2021/12/05 12:53:01;;;;;;;30.83;13.38;;;19.70;61.10;;;;;;4225332;28;20587;-61
2021/12/05 12:55:28;;;;;;;26.08;12.68;;;19.70;61.20;;;;;;4201916;27;20052;-61
2021/12/05 12:57:51;;;;;;;17.67;10.02;;;19.80;61.10;;;;;;4197972;27;20048;-61
2021/12/05 13:00:16;;;;;;;21.05;10.90;;;19.80;61.80;;;;;;4192333;28;20102;-61
2021/12/05 13:02:56;;;;;;;29.08;13.10;;;19.90;60.80;;;;;;4196216;27;20047;-62
2021/12/05 13:05:40;;;;;;;21.80;11.00;;;19.90;60.60;;;;;;4207712;27;20052;-61
2021/12/05 13:10:48;;;;;;;26.90;12.90;;;20.00;60.30;;;;;;4196187;27;20055;-61
2021/12/05 13:13:16;;;;;;;37.20;16.95;;;20.00;60.30;;;;;;4212689;28;20403;-61
2021/12/05 13:15:43;;;;;;;16.83;9.48;;;20.00;60.30;;;;;;4218857;28;20139;-62
2021/12/05 13:18:26;;;;;;;17.67;9.02;;;20.10;60.30;;;;;;4225612;28;20070;-61
2021/12/05 13:20:54;;;;;;;17.70;8.98;;;20.10;60.00;;;;;;4224998;28;20131;-61
2021/12/05 13:23:19;;;;;;;19.95;8.65;;;20.20;60.00;;;;;;4223271;28;20051;-61
2021/12/05 13:26:18;;;;;;;14.30;8.25;;;20.10;59.80;;;;;;4215702;28;20051;-62
2021/12/05 13:28:45;;;;;;;20.63;10.00;;;20.10;59.80;;;;;;4214130;28;20047;-61
2021/12/05 13:31:37;;;;;;;18.92;10.05;;;20.10;60.10;;;;;;4224995;27;20065;-61
2021/12/05 13:34:32;;;;;;;13.82;6.00;;;20.00;60.00;;;;;;4224886;27;20047;-61
2021/12/05 13:36:57;;;;;;;18.88;9.80;;;19.90;60.50;;;;;;4224969;28;20044;-62
2021/12/05 13:39:36;;;;;;;17.85;9.65;;;19.80;61.30;;;;;;4209078;28;20048;-62
2021/12/05 13:42:04;;;;;;;11.82;6.75;;;19.70;61.00;;;;;;4214282;27;20048;-61
2021/12/05 13:45:10;;;;;;;17.88;9.02;;;19.70;61.20;;;;;;4208780;28;20083;-60
2021/12/05 13:47:37;;;;;;;14.35;7.55;;;19.70;60.30;;;;;;4206975;28;20044;-61
2021/12/05 13:50:21;;;;;;;13.10;8.05;;;19.70;61.10;;;;;;4207258;28;20040;-61
2021/12/05 13:52:46;;;;;;;13.73;8.60;;;19.80;61.20;;;;;;4208024;28;20043;-61
2021/12/05 13:55:36;;;;;;;11.07;7.43;;;19.80;61.20;;;;;;4214172;28;20054;-62
2021/12/05 13:58:18;;;;;;;9.88;6.03;;;19.80;60.90;;;;;;4222180;28;20043;-61
2021/12/05 14:00:44;;;;;;;12.98;7.30;;;19.90;60.70;;;;;;4223005;28;20081;-61
2021/12/05 14:03:06;;;;;;;10.55;6.10;;;19.90;61.00;;;;;;4224812;28;20411;-67
2021/12/05 14:05:30;;;;;;;17.63;8.73;;;19.90;59.70;;;;;;4224280;28;20086;-67
2021/12/05 14:07:53;;;;;;;16.45;9.50;;;19.90;60.70;;;;;;4219182;27;20434;-67
2021/12/05 14:10:15;;;;;;;16.42;9.13;;;19.90;60.70;;;;;;4225958;27;20059;-67
2021/12/05 14:12:41;;;;;;;13.77;8.70;;;20.00;60.80;;;;;;4215195;27;20356;-67
2021/12/05 14:15:08;;;;;;;9.52;6.68;;;20.00;60.50;;;;;;4211097;28;20048;-67
2021/12/05 14:17:33;;;;;;;13.18;6.68;;;20.00;60.20;;;;;;4210613;28;20036;-67
2021/12/05 14:19:58;;;;;;;17.80;9.50;;;20.10;59.70;;;;;;4210910;28;20044;-67
2021/12/05 14:22:22;;;;;;;17.55;9.10;;;20.10;60.20;;;;;;4210749;28;20457;-67
2021/12/05 14:24:47;;;;;;;14.48;8.65;;;20.10;61.30;;;;;;4210811;28;20412;-67
2021/12/05 14:27:11;;;;;;;12.68;6.93;;;20.10;60.20;;;;;;4215363;27;20039;-67
2021/12/05 14:29:39;;;;;;;17.20;9.52;;;20.20;60.30;;;;;;4226435;27;20123;-67
2021/12/05 14:32:04;;;;;;;9.73;6.18;;;20.10;60.50;;;;;;4225786;28;20066;-67
2021/12/05 14:34:28;;;;;;;22.30;9.80;;;20.20;60.70;;;;;;4227591;27;20040;-67
2021/12/05 14:36:53;;;;;;;17.13;9.82;;;20.10;61.20;;;;;;4219096;27;20105;-67
2021/12/05 14:39:27;;;;;;;14.32;8.52;;;20.20;61.90;;;;;;4221307;27;20483;-67
2021/12/05 14:41:52;;;;;;;21.15;11.00;;;20.20;61.30;;;;;;4227222;27;20048;-66
2021/12/05 14:44:15;;;;;;;11.25;7.35;;;20.20;62.30;;;;;;4219623;27;20054;-66
2021/12/05 14:46:46;;;;;;;16.15;9.75;;;20.20;62.70;;;;;;4210188;28;20131;-69
2021/12/05 14:49:08;;;;;;;18.20;9.32;;;20.10;63.70;;;;;;4216017;28;20044;-68
2021/12/05 14:51:39;;;;;;;14.00;9.50;;;20.20;63.50;;;;;;4227363;27;20063;-68
2021/12/05 14:54:02;;;;;;;16.05;9.45;;;20.20;63.40;;;;;;4226996;27;20071;-65
2021/12/05 14:56:29;;;;;;;15.00;10.25;;;20.20;63.70;;;;;;4226743;27;20409;-68
2021/12/05 14:59:03;;;;;;;10.80;7.18;;;20.20;63.70;;;;;;4225439;27;20138;-67
2021/12/05 15:01:28;;;;;;;11.63;7.45;;;20.20;63.00;;;;;;4218286;27;20047;-67
2021/12/05 15:03:51;;;;;;;11.88;7.40;;;20.30;63.40;;;;;;4226806;28;20487;-68
2021/12/05 15:06:13;;;;;;;10.00;6.80;;;20.30;63.50;;;;;;4227107;28;20044;-67
2021/12/05 15:08:38;;;;;;;12.57;7.47;;;20.30;63.10;;;;;;4219037;27;20044;-67
2021/12/05 15:11:03;;;;;;;10.07;7.78;;;20.30;63.10;;;;;;4223453;27;20071;-67
2021/12/05 15:13:26;;;;;;;14.45;8.45;;;20.30;63.10;;;;;;4227117;27;20441;-67
2021/12/05 15:15:49;;;;;;;11.68;8.00;;;20.30;62.80;;;;;;4210062;28;20039;-68
2021/12/05 15:18:17;;;;;;;12.75;7.70;;;20.40;58.60;;;;;;4209793;28;20059;-67
2021/12/05 15:20:39;;;;;;;8.88;6.18;;;20.30;61.70;;;;;;4209709;28;20058;-67
2021/12/05 15:23:03;;;;;;;9.27;6.90;;;20.30;61.50;;;;;;4209888;28;20093;-67
2021/12/05 15:25:28;;;;;;;8.60;6.82;;;20.30;61.10;;;;;;4210152;28;20048;-67
2021/12/05 15:27:51;;;;;;;14.93;8.80;;;20.30;61.80;;;;;;4211115;28;20052;-68
2021/12/05 15:30:17;;;;;;;11.27;7.60;;;20.40;62.20;;;;;;4212116;28;20484;-68
2021/12/05 15:32:40;;;;;;;10.52;7.75;;;20.40;59.30;;;;;;4209818;28;20051;-68
2021/12/05 15:35:06;;;;;;;9.32;7.00;;;20.40;60.80;;;;;;4209710;28;20558;-68
2021/12/05 15:37:28;;;;;;;17.20;9.85;;;20.30;59.80;;;;;;4210025;28;20047;-68
2021/12/05 15:39:54;;;;;;;9.73;8.18;;;20.30;61.20;;;;;;4210761;28;20048;-68
2021/12/05 15:42:21;;;;;;;13.15;7.55;;;20.20;61.80;;;;;;4209750;28;20043;-68
2021/12/05 15:44:44;;;;;;;11.77;7.82;;;20.20;61.80;;;;;;4209302;28;20040;-68
2021/12/05 15:47:11;;;;;;;9.32;7.15;;;20.20;62.10;;;;;;4209629;28;20105;-68
2021/12/05 15:49:51;;;;;;;12.90;9.18;;;20.10;62.00;;;;;;4209203;28;20052;-68
2021/12/05 15:52:14;;;;;;;11.18;8.13;;;20.10;61.50;;;;;;4213185;27;20039;-68
2021/12/05 15:54:38;;;;;;;13.35;8.43;;;20.10;62.00;;;;;;4210071;28;20043;-68
2021/12/05 15:57:12;;;;;;;13.07;10.18;;;20.20;61.70;;;;;;4213024;28;20047;-68
2021/12/05 15:59:39;;;;;;;10.82;8.05;;;20.10;61.20;;;;;;4226017;27;20074;-68
2021/12/05 16:02:06;;;;;;;10.00;9.00;;;20.10;60.80;;;;;;4224860;28;20466;-66
2021/12/05 16:04:31;;;;;;;12.55;9.23;;;20.00;61.80;;;;;;4220469;27;20059;-68
2021/12/05 16:06:53;;;;;;;13.80;9.30;;;20.00;61.00;;;;;;4220423;28;20071;-67
2021/12/05 16:09:17;;;;;;;15.68;10.63;;;20.00;61.40;;;;;;4213012;28;20059;-68
2021/12/05 16:11:39;;;;;;;13.15;9.77;;;20.00;61.50;;;;;;4209198;28;20379;-65
2021/12/05 16:14:01;;;;;;;13.98;10.05;;;19.90;61.30;;;;;;4209045;28;20140;-69
2021/12/05 16:16:28;;;;;;;12.85;9.73;;;19.90;62.20;;;;;;4209109;28;20105;-66
2021/12/05 16:18:52;;;;;;;12.38;9.85;;;20.00;62.10;;;;;;4208801;28;20138;-68
2021/12/05 16:21:20;;;;;;;10.57;9.48;;;20.00;62.10;;;;;;4209148;28;20056;-66
2021/12/05 16:23:42;;;;;;;10.88;9.68;;;20.00;60.60;;;;;;4222523;27;20100;-64
2021/12/05 16:26:09;;;;;;;11.80;9.18;;;20.00;58.60;;;;;;4225782;27;20560;-65
2021/12/05 16:28:34;;;;;;;11.48;9.75;;;20.00;59.50;;;;;;4210143;28;20500;-68
2021/12/05 16:31:04;;;;;;;10.60;8.57;;;19.90;61.80;;;;;;4209111;28;20086;-66
2021/12/05 16:33:31;;;;;;;12.82;9.88;;;19.80;59.50;;;;;;4208789;28;20384;-68
2021/12/05 16:35:53;;;;;;;12.10;10.02;;;19.70;58.10;;;;;;4208724;28;20050;-69